createdAt,value
2023-01-23T00:00:14.276Z,95.50
2023-01-23T00:03:56.658Z,95.50
2023-01-23T00:07:38.366Z,95.40
2023-01-23T00:11:22.383Z,95.40
2023-01-23T00:15:06.625Z,95.40
2023-01-23T00:18:49.132Z,95.40
2023-01-23T00:22:31.005Z,95.40
2023-01-23T00:26:18.475Z,95.40
2023-01-23T00:30:00.330Z,95.50
2023-01-23T00:33:43.868Z,95.40
2023-01-23T00:37:26.082Z,95.40
2023-01-23T00:41:08.103Z,95.30
2023-01-23T00:44:49.840Z,95.30
2023-01-23T00:48:31.623Z,95.20
2023-01-23T00:52:13.383Z,95.20
2023-01-23T00:55:55.437Z,95.20
2023-01-23T00:59:37.260Z,95.30
2023-01-23T01:03:20.467Z,95.30
2023-01-23T01:07:02.525Z,95.40
2023-01-23T01:10:44.637Z,95.50
2023-01-23T01:14:26.391Z,95.50
2023-01-23T01:18:08.162Z,95.70
2023-01-23T01:21:49.959Z,95.80
2023-01-23T01:25:31.819Z,96.00
2023-01-23T01:29:13.592Z,96.20
2023-01-23T01:32:55.667Z,96.30
2023-01-23T01:36:37.443Z,96.50
2023-01-23T01:40:23.300Z,96.60
2023-01-23T01:44:05.087Z,96.70
2023-01-23T01:47:46.814Z,96.70
2023-01-23T01:51:41.009Z,96.80
2023-01-23T01:55:22.794Z,96.50
2023-01-23T01:59:05.757Z,96.40
2023-01-23T02:03:02.793Z,96.40
2023-01-23T02:06:44.839Z,96.40
2023-01-23T02:10:26.878Z,96.20
2023-01-23T02:14:08.737Z,96.10
2023-01-23T02:17:54.655Z,96.00
2023-01-23T02:21:39.069Z,95.90
2023-01-23T02:25:45.389Z,95.80
2023-01-23T02:29:27.195Z,95.80
2023-01-23T02:33:21.140Z,95.70
2023-01-23T02:37:04.170Z,95.70
2023-01-23T02:40:46.258Z,95.60
2023-01-23T02:44:33.831Z,95.50
2023-01-23T02:48:15.543Z,95.40
2023-01-23T02:51:57.715Z,95.40
2023-01-23T02:55:43.229Z,95.30
2023-01-23T02:59:43.635Z,95.30
2023-01-23T03:03:25.374Z,95.20
2023-01-23T03:07:07.446Z,95.20
2023-01-23T03:10:49.261Z,95.10
2023-01-23T03:14:32.367Z,95.10
2023-01-23T03:18:14.116Z,95.10
2023-01-23T03:21:55.929Z,95.10
2023-01-23T03:25:37.696Z,95.10
2023-01-23T03:29:44.146Z,95.10
2023-01-23T03:33:25.987Z,95.20
2023-01-23T03:37:08.266Z,95.20
2023-01-23T03:41:09.275Z,95.20
2023-01-23T03:44:53.056Z,95.50
2023-01-23T03:48:34.827Z,95.20
2023-01-23T03:52:16.552Z,95.20
2023-01-23T03:55:58.296Z,95.20
2023-01-23T03:59:40.059Z,95.10
2023-01-23T04:03:21.932Z,95.00
2023-01-23T04:07:04.572Z,95.00
2023-01-23T04:10:46.334Z,95.00
2023-01-23T04:14:30.566Z,95.00
2023-01-23T04:18:12.291Z,95.00
2023-01-23T04:21:53.984Z,94.90
2023-01-23T04:25:35.760Z,94.90
2023-01-23T04:29:17.688Z,94.90
2023-01-23T04:32:59.460Z,94.80
2023-01-23T04:36:41.171Z,94.80
2023-01-23T04:40:22.953Z,94.80
2023-01-23T04:44:22.930Z,94.80
2023-01-23T04:48:05.086Z,94.80
2023-01-23T04:51:48.286Z,94.80
2023-01-23T04:55:30.107Z,94.80
2023-01-23T04:59:12.044Z,95.10
2023-01-23T05:02:53.724Z,94.80
2023-01-23T05:06:35.468Z,94.80
2023-01-23T05:10:17.849Z,94.80
2023-01-23T05:13:59.755Z,94.80
2023-01-23T05:17:41.506Z,94.80
2023-01-23T05:21:23.255Z,94.90
2023-01-23T05:25:05.465Z,94.90
2023-01-23T05:28:47.193Z,94.80
2023-01-23T05:32:28.896Z,94.80
2023-01-23T05:36:10.666Z,94.80
2023-01-23T05:39:52.597Z,94.70
2023-01-23T05:43:34.322Z,94.80
2023-01-23T05:47:16.041Z,95.10
2023-01-23T05:50:57.778Z,94.90
2023-01-23T05:54:39.498Z,94.90
2023-01-23T05:58:21.238Z,94.90
2023-01-23T06:02:03.108Z,94.80
2023-01-23T06:05:44.850Z,94.80
2023-01-23T06:09:26.751Z,94.70
2023-01-23T06:13:08.459Z,94.80
2023-01-23T06:16:50.167Z,94.80
2023-01-23T06:20:31.955Z,94.80
2023-01-23T06:24:13.870Z,94.80
2023-01-23T06:27:55.607Z,94.80
2023-01-23T06:31:37.463Z,94.80
2023-01-23T06:35:19.610Z,94.90
2023-01-23T06:39:01.491Z,94.90
2023-01-23T06:42:43.470Z,95.00
2023-01-23T06:46:25.248Z,94.90
2023-01-23T06:50:07.642Z,94.90
2023-01-23T06:53:49.459Z,94.80
2023-01-23T06:57:31.242Z,94.70
2023-01-23T07:01:19.250Z,94.60
2023-01-23T07:05:01.033Z,94.60
2023-01-23T07:08:43.142Z,94.60
2023-01-23T07:12:24.903Z,94.70
2023-01-23T07:16:07.091Z,94.70
2023-01-23T07:19:48.921Z,94.80
2023-01-23T07:23:30.652Z,94.90
2023-01-23T07:27:12.437Z,94.90
2023-01-23T07:30:54.445Z,94.90
2023-01-23T07:34:36.464Z,94.90
2023-01-23T07:38:18.243Z,94.90
2023-01-23T07:42:00.333Z,94.90
2023-01-23T07:45:42.143Z,94.90
2023-01-23T07:49:24.911Z,94.90
2023-01-23T07:53:09.477Z,94.90
2023-01-23T07:56:51.412Z,95.00
2023-01-23T08:00:33.262Z,95.00
2023-01-23T08:04:15.511Z,94.90
2023-01-23T08:08:12.019Z,94.80
2023-01-23T08:11:54.848Z,94.80
2023-01-23T08:15:38.455Z,94.70
2023-01-23T08:19:20.252Z,94.70
2023-01-23T08:23:02.392Z,94.80
2023-01-23T08:26:44.463Z,94.90
2023-01-23T08:30:26.272Z,95.00
2023-01-23T08:34:08.195Z,95.10
2023-01-23T08:37:49.948Z,95.20
2023-01-23T08:41:31.894Z,95.40
2023-01-23T08:45:13.665Z,95.50
2023-01-23T08:48:55.866Z,95.60
2023-01-23T08:52:37.571Z,95.60
2023-01-23T08:56:21.519Z,95.70
2023-01-23T09:00:03.857Z,95.80
2023-01-23T09:03:45.889Z,95.80
2023-01-23T09:07:27.580Z,96.00
2023-01-23T09:11:11.406Z,96.00
2023-01-23T09:14:53.200Z,96.00
2023-01-23T09:18:35.830Z,96.00
2023-01-23T09:22:17.710Z,96.00
2023-01-23T09:26:04.204Z,96.00
2023-01-23T09:29:45.899Z,96.00
2023-01-23T09:33:27.726Z,96.00
2023-01-23T09:37:09.863Z,95.90
2023-01-23T09:40:55.106Z,95.90
2023-01-23T09:44:45.006Z,95.90
2023-01-23T09:49:02.119Z,95.90
2023-01-23T09:52:54.863Z,95.80
2023-01-23T09:56:41.711Z,96.00
2023-01-23T10:00:31.749Z,96.10
2023-01-23T10:04:18.230Z,96.20
2023-01-23T10:08:29.168Z,96.30
2023-01-23T10:12:29.765Z,96.20
2023-01-23T10:16:38.226Z,96.30
2023-01-23T10:20:50.217Z,96.30
2023-01-23T10:24:40.408Z,96.20
2023-01-23T10:28:35.353Z,96.30
2023-01-23T10:32:27.019Z,96.30
2023-01-23T10:36:26.250Z,96.40
2023-01-23T10:40:43.845Z,96.50
2023-01-23T10:44:25.604Z,96.50
2023-01-23T10:48:32.293Z,96.60
2023-01-23T10:52:37.600Z,96.60
2023-01-23T10:56:19.861Z,96.70
2023-01-23T11:00:19.004Z,96.80
2023-01-23T11:04:17.562Z,96.80
2023-01-23T11:07:59.499Z,96.80
2023-01-23T11:11:42.384Z,96.90
2023-01-23T11:15:33.788Z,97.00
2023-01-23T11:19:22.665Z,97.10
2023-01-23T11:23:13.020Z,97.30
2023-01-23T11:27:17.174Z,97.20
2023-01-23T11:31:19.426Z,97.50
2023-01-23T11:35:12.824Z,97.50
2023-01-23T11:39:13.332Z,97.80
2023-01-23T11:42:55.635Z,97.90
2023-01-23T11:46:49.871Z,98.20
2023-01-23T11:50:55.203Z,97.80
2023-01-23T11:55:03.232Z,97.60
2023-01-23T11:59:20.795Z,97.90
2023-01-23T12:03:24.746Z,97.30
2023-01-23T12:07:26.315Z,97.40
2023-01-23T12:11:16.522Z,96.90
2023-01-23T12:15:07.041Z,97.30
2023-01-23T12:19:12.805Z,96.90
2023-01-23T12:23:03.553Z,96.60
2023-01-23T12:27:16.916Z,97.10
2023-01-23T12:31:02.635Z,96.50
2023-01-23T12:35:03.195Z,97.40
2023-01-23T12:39:11.402Z,97.30
2023-01-23T12:43:04.513Z,97.30
2023-01-23T12:47:18.348Z,97.60
2023-01-23T12:51:27.640Z,97.10
2023-01-23T12:55:24.366Z,97.40
2023-01-23T12:59:30.158Z,97.60
2023-01-23T13:03:45.995Z,97.70
2023-01-23T13:08:03.343Z,97.40
2023-01-23T13:11:45.139Z,97.40
2023-01-23T13:15:40.329Z,97.80
2023-01-23T13:19:44.396Z,97.80
2023-01-23T13:23:30.648Z,97.80
2023-01-23T13:27:45.552Z,97.20
2023-01-23T13:31:40.357Z,97.50
2023-01-23T13:35:56.117Z,97.70
2023-01-23T13:39:39.023Z,97.40
2023-01-23T13:43:49.536Z,97.90
2023-01-23T14:20:40.147Z,97.80
2023-01-23T14:24:27.271Z,97.80
2023-01-23T14:28:16.765Z,97.70
2023-01-23T14:31:58.607Z,97.60
2023-01-23T14:35:42.844Z,97.80
2023-01-23T14:39:28.225Z,97.70
2023-01-23T14:43:16.935Z,97.50
2023-01-23T14:47:00.607Z,97.30
2023-01-23T14:50:43.078Z,97.40
2023-01-23T14:54:26.384Z,97.30
2023-01-23T14:58:22.218Z,97.20
2023-01-23T15:02:31.428Z,96.80
2023-01-23T15:06:18.946Z,96.20
2023-01-23T15:10:00.813Z,97.00
2023-01-23T15:13:50.506Z,97.00
2023-01-23T15:17:32.272Z,96.90
2023-01-23T15:21:35.287Z,96.90
2023-01-23T15:25:32.623Z,96.40
2023-01-23T15:29:20.593Z,96.30
2023-01-23T15:33:07.528Z,96.70
2023-01-23T15:36:59.998Z,96.90
2023-01-23T15:40:42.318Z,96.70
2023-01-23T15:44:28.072Z,96.90
2023-01-23T15:48:10.685Z,96.90
2023-01-23T15:51:54.510Z,97.00
2023-01-23T15:55:36.261Z,97.00
2023-01-23T15:59:19.414Z,97.00
2023-01-23T16:03:01.291Z,97.00
2023-01-23T16:06:43.814Z,96.90
2023-01-23T16:10:39.327Z,96.90
2023-01-23T16:14:21.139Z,96.80
2023-01-23T16:18:06.421Z,96.90
2023-01-23T16:22:03.199Z,96.90
2023-01-23T16:25:46.978Z,96.80
2023-01-23T16:29:32.055Z,96.70
2023-01-23T16:33:14.386Z,96.50
2023-01-23T16:36:59.553Z,96.80
2023-01-23T16:40:41.264Z,96.60
2023-01-23T16:44:26.570Z,96.70
2023-01-23T16:48:12.952Z,96.60
2023-01-23T16:51:59.800Z,96.50
2023-01-23T16:55:42.198Z,96.40
2023-01-23T16:59:39.065Z,96.40
2023-01-23T17:03:24.816Z,96.30
2023-01-23T17:07:20.228Z,96.40
2023-01-23T17:11:03.943Z,96.70
2023-01-23T17:14:46.785Z,96.50
2023-01-23T17:18:32.295Z,96.50
2023-01-23T17:22:30.442Z,96.40
2023-01-23T17:26:21.094Z,96.40
2023-01-23T17:30:03.197Z,96.50
2023-01-23T17:33:45.277Z,96.50
2023-01-23T17:37:27.024Z,96.60
2023-01-23T17:41:16.674Z,96.50
2023-01-23T17:44:58.463Z,96.50
2023-01-23T17:48:41.342Z,96.40
2023-01-23T17:52:24.936Z,96.30
2023-01-23T17:56:07.278Z,96.10
2023-01-23T17:59:48.985Z,95.90
2023-01-23T18:03:30.872Z,95.80
2023-01-23T18:07:12.708Z,95.80
2023-01-23T18:10:56.617Z,95.70
2023-01-23T18:15:19.076Z,95.60
2023-01-23T18:19:22.504Z,95.60
2023-01-23T18:23:04.953Z,95.50
2023-01-23T18:26:56.970Z,95.50
2023-01-23T18:30:58.015Z,95.40
2023-01-23T18:34:46.527Z,95.30
2023-01-23T18:38:44.058Z,95.30
2023-01-23T18:42:38.627Z,95.20
2023-01-23T18:46:23.875Z,95.30
2023-01-23T18:50:07.317Z,95.20
2023-01-23T18:54:08.366Z,95.10
2023-01-23T18:58:01.966Z,95.00
2023-01-23T19:01:55.918Z,95.00
2023-01-23T19:05:37.830Z,95.10
2023-01-23T19:09:21.487Z,95.00
2023-01-23T19:13:06.516Z,95.20
2023-01-23T19:17:01.179Z,95.40
2023-01-23T19:21:02.617Z,94.90
2023-01-23T19:24:44.667Z,94.90
2023-01-23T19:28:26.707Z,94.80
2023-01-23T19:32:10.821Z,94.80
2023-01-23T19:35:56.447Z,94.80
2023-01-23T19:39:38.229Z,94.80
2023-01-23T19:43:20.021Z,94.80
2023-01-23T19:47:03.417Z,94.70
2023-01-23T19:50:45.291Z,94.70
2023-01-23T19:54:27.096Z,94.60
2023-01-23T19:58:08.903Z,94.60
2023-01-23T20:01:52.424Z,94.50
2023-01-23T20:05:34.227Z,94.50
2023-01-23T20:09:16.381Z,94.50
2023-01-23T20:12:58.851Z,94.60
2023-01-23T20:16:43.025Z,94.60
2023-01-23T20:20:25.234Z,94.70
2023-01-23T20:24:08.172Z,94.70
2023-01-23T20:27:50.037Z,94.90
2023-01-23T20:31:32.499Z,94.60
2023-01-23T20:35:14.430Z,94.60
2023-01-23T20:38:57.171Z,94.60
2023-01-23T20:42:39.277Z,94.60
2023-01-23T20:46:21.108Z,94.60
2023-01-23T20:50:03.338Z,94.60
2023-01-23T20:53:45.481Z,94.60
2023-01-23T20:57:47.199Z,94.50
2023-01-23T21:01:51.819Z,94.50
2023-01-23T21:05:33.649Z,94.50
2023-01-23T21:09:15.907Z,94.50
2023-01-23T21:12:57.659Z,94.40
2023-01-23T21:16:39.517Z,94.40
2023-01-23T21:20:21.233Z,94.30
2023-01-23T21:24:03.026Z,94.40
2023-01-23T21:27:44.889Z,94.40
2023-01-23T21:31:29.138Z,94.30
2023-01-23T21:35:11.003Z,94.70
2023-01-23T21:38:53.211Z,94.30
2023-01-23T21:42:34.916Z,94.20
2023-01-23T21:46:17.010Z,94.30
2023-01-23T21:49:58.743Z,94.20
2023-01-23T21:53:42.418Z,94.20
2023-01-23T21:57:24.173Z,94.50
2023-01-23T22:01:30.610Z,94.20
2023-01-23T22:05:12.363Z,94.20
2023-01-23T22:08:54.146Z,94.20
2023-01-23T22:12:35.995Z,94.20
2023-01-23T22:16:17.832Z,94.10
2023-01-23T22:19:59.586Z,94.40
2023-01-23T22:23:41.464Z,94.00
2023-01-23T22:27:23.383Z,94.00
2023-01-23T22:31:11.079Z,94.10
2023-01-23T22:34:53.438Z,94.10
2023-01-23T22:38:35.651Z,94.10
2023-01-23T22:42:19.026Z,94.10
2023-01-23T22:46:15.653Z,94.00
2023-01-23T22:49:57.468Z,94.20
2023-01-23T22:53:39.999Z,93.90
2023-01-23T22:57:21.839Z,94.00
2023-01-23T23:01:04.270Z,93.90
2023-01-23T23:04:48.438Z,93.90
2023-01-23T23:08:30.842Z,93.90
2023-01-23T23:12:13.430Z,93.80
2023-01-23T23:15:55.475Z,93.80
2023-01-23T23:19:37.194Z,94.10
2023-01-23T23:23:21.740Z,93.80
2023-01-23T23:27:10.946Z,93.70
2023-01-23T23:30:56.425Z,93.70
2023-01-23T23:34:39.669Z,93.70
2023-01-23T23:38:22.691Z,93.70
2023-01-23T23:42:06.977Z,93.70
2023-01-23T23:45:54.132Z,93.60
2023-01-23T23:49:35.865Z,93.60
2023-01-23T23:53:20.017Z,93.50
2023-01-23T23:57:03.598Z,93.50
